Current Conditions
Mostly Cloudy
Conditions



Pressure
1026.12 (hPa) - 30.3 (inHG)
Visibility

9.9 (mimiles) - 16.0 (km)
   Temperature
39  °F
4°C
18  °F
Dewpoint
42  %
 Humidity
   Wind Speed
9  mph
8  kts
14  km/h
4.0  m/s
   Wind Direction
 300°
West North
West
   Airport Data
KDTW
Location Detroit Metropolitan Wayne County Airport 20 mi (32.18 km)
Metar :KDTW 251753Z 30008G17KT 10SM BKN048 04/M08 A3030 RMK AO2 SLP266 T00441078 10044 21050 58004
Thu 25th February 13:53 pm
   Raw Metar Info
Raw METAR is the most common format in the world for the transmission of observational weather data. It is highly standardized through the International Civil Aviation Organization (ICAO), which allows it to be understood throughout most of the world.
   API Info
Data Provided by
https://www.checkwx.com/weather/KDTW
   © Info
CSS/SVG/PHP scripts were developed by weather34.com for use in the weather34 template © 2015-2021

Guide Info provided by Metar-Wikipedia